sensor_id;sensor_type;location;lat;lon;timestamp;P1;durP1;ratioP1;P2;durP2;ratioP2
10114;SDS011;5097;43.260;27.812;2022-10-16T00:00:37;22.13;;;13.57;;
10114;SDS011;5097;43.260;27.812;2022-10-16T00:03:23;23.27;;;14.83;;
10114;SDS011;5097;43.260;27.812;2022-10-16T00:06:11;20.47;;;12.33;;
10114;SDS011;5097;43.260;27.812;2022-10-16T00:08:58;16.97;;;10.93;;
10114;SDS011;5097;43.260;27.812;2022-10-16T00:11:42;14.97;;;10.23;;
10114;SDS011;5097;43.260;27.812;2022-10-16T00:14:26;14.47;;;10.30;;
10114;SDS011;5097;43.260;27.812;2022-10-16T00:17:10;12.53;;;9.33;;
10114;SDS011;5097;43.260;27.812;2022-10-16T00:19:56;15.97;;;10.33;;
10114;SDS011;5097;43.260;27.812;2022-10-16T00:22:58;16.93;;;11.17;;
10114;SDS011;5097;43.260;27.812;2022-10-16T00:25:42;16.43;;;11.53;;
10114;SDS011;5097;43.260;27.812;2022-10-16T00:28:26;19.27;;;12.13;;
10114;SDS011;5097;43.260;27.812;2022-10-16T00:31:11;17.43;;;9.67;;
10114;SDS011;5097;43.260;27.812;2022-10-16T00:33:56;23.53;;;11.97;;
10114;SDS011;5097;43.260;27.812;2022-10-16T00:36:41;16.47;;;10.63;;
10114;SDS011;5097;43.260;27.812;2022-10-16T00:39:25;16.67;;;9.80;;
10114;SDS011;5097;43.260;27.812;2022-10-16T00:42:10;16.93;;;10.73;;
10114;SDS011;5097;43.260;27.812;2022-10-16T00:44:58;21.73;;;11.27;;
10114;SDS011;5097;43.260;27.812;2022-10-16T00:47:45;14.87;;;10.87;;
10114;SDS011;5097;43.260;27.812;2022-10-16T00:50:32;17.43;;;10.90;;
10114;SDS011;5097;43.260;27.812;2022-10-16T00:53:19;18.13;;;10.03;;
10114;SDS011;5097;43.260;27.812;2022-10-16T00:56:03;14.97;;;9.70;;
10114;SDS011;5097;43.260;27.812;2022-10-16T00:58:48;17.87;;;9.03;;
10114;SDS011;5097;43.260;27.812;2022-10-16T01:01:32;17.20;;;10.13;;
10114;SDS011;5097;43.260;27.812;2022-10-16T01:04:16;9.43;;;7.90;;
10114;SDS011;5097;43.260;27.812;2022-10-16T01:07:02;15.60;;;9.33;;
10114;SDS011;5097;43.260;27.812;2022-10-16T01:09:57;15.70;;;9.63;;
10114;SDS011;5097;43.260;27.812;2022-10-16T01:12:50;18.93;;;9.43;;
10114;SDS011;5097;43.260;27.812;2022-10-16T01:15:39;15.10;;;9.23;;
10114;SDS011;5097;43.260;27.812;2022-10-16T01:18:28;13.43;;;8.57;;
10114;SDS011;5097;43.260;27.812;2022-10-16T01:21:19;11.83;;;7.90;;
10114;SDS011;5097;43.260;27.812;2022-10-16T01:24:07;17.30;;;10.43;;
10114;SDS011;5097;43.260;27.812;2022-10-16T01:27:10;15.03;;;9.53;;
10114;SDS011;5097;43.260;27.812;2022-10-16T01:29:56;17.60;;;9.97;;
10114;SDS011;5097;43.260;27.812;2022-10-16T01:32:45;10.47;;;7.97;;
10114;SDS011;5097;43.260;27.812;2022-10-16T01:35:35;9.03;;;6.97;;
10114;SDS011;5097;43.260;27.812;2022-10-16T01:38:23;12.33;;;7.87;;
10114;SDS011;5097;43.260;27.812;2022-10-16T01:41:14;15.57;;;9.17;;
10114;SDS011;5097;43.260;27.812;2022-10-16T01:44:03;14.03;;;7.83;;
10114;SDS011;5097;43.260;27.812;2022-10-16T01:46:50;13.97;;;7.27;;
10114;SDS011;5097;43.260;27.812;2022-10-16T01:49:36;12.77;;;7.20;;
10114;SDS011;5097;43.260;27.812;2022-10-16T01:52:23;9.40;;;6.07;;
10114;SDS011;5097;43.260;27.812;2022-10-16T01:55:12;13.97;;;8.13;;
10114;SDS011;5097;43.260;27.812;2022-10-16T01:58:02;14.03;;;8.13;;
10114;SDS011;5097;43.260;27.812;2022-10-16T02:00:52;7.73;;;6.53;;
10114;SDS011;5097;43.260;27.812;2022-10-16T02:03:38;10.13;;;7.27;;
10114;SDS011;5097;43.260;27.812;2022-10-16T02:06:26;9.57;;;6.87;;
10114;SDS011;5097;43.260;27.812;2022-10-16T02:09:10;10.27;;;5.07;;
10114;SDS011;5097;43.260;27.812;2022-10-16T02:11:54;8.47;;;5.03;;
10114;SDS011;5097;43.260;27.812;2022-10-16T02:14:40;7.30;;;5.53;;
10114;SDS011;5097;43.260;27.812;2022-10-16T02:17:27;5.17;;;4.70;;
10114;SDS011;5097;43.260;27.812;2022-10-16T02:20:11;6.53;;;5.33;;
10114;SDS011;5097;43.260;27.812;2022-10-16T02:22:55;5.80;;;4.77;;
10114;SDS011;5097;43.260;27.812;2022-10-16T02:25:41;8.20;;;6.53;;
10114;SDS011;5097;43.260;27.812;2022-10-16T02:28:30;9.33;;;6.87;;
10114;SDS011;5097;43.260;27.812;2022-10-16T02:31:22;11.50;;;6.07;;
10114;SDS011;5097;43.260;27.812;2022-10-16T02:34:12;7.87;;;6.03;;
10114;SDS011;5097;43.260;27.812;2022-10-16T02:36:59;6.30;;;5.67;;
10114;SDS011;5097;43.260;27.812;2022-10-16T02:39:45;7.87;;;5.73;;
10114;SDS011;5097;43.260;27.812;2022-10-16T02:42:29;7.47;;;6.77;;
10114;SDS011;5097;43.260;27.812;2022-10-16T02:45:17;6.93;;;6.07;;
10114;SDS011;5097;43.260;27.812;2022-10-16T02:48:01;9.83;;;6.57;;
10114;SDS011;5097;43.260;27.812;2022-10-16T02:50:47;9.87;;;6.90;;
10114;SDS011;5097;43.260;27.812;2022-10-16T02:53:31;8.13;;;6.63;;
10114;SDS011;5097;43.260;27.812;2022-10-16T02:56:15;13.03;;;7.57;;
10114;SDS011;5097;43.260;27.812;2022-10-16T02:58:59;10.83;;;7.97;;
10114;SDS011;5097;43.260;27.812;2022-10-16T03:01:43;10.83;;;7.50;;
10114;SDS011;5097;43.260;27.812;2022-10-16T03:04:27;9.97;;;6.43;;
10114;SDS011;5097;43.260;27.812;2022-10-16T03:07:13;10.30;;;6.80;;
10114;SDS011;5097;43.260;27.812;2022-10-16T03:09:56;12.60;;;6.97;;
10114;SDS011;5097;43.260;27.812;2022-10-16T03:12:43;10.27;;;7.10;;
10114;SDS011;5097;43.260;27.812;2022-10-16T03:15:27;7.23;;;5.90;;
10114;SDS011;5097;43.260;27.812;2022-10-16T03:18:12;10.07;;;6.63;;
10114;SDS011;5097;43.260;27.812;2022-10-16T03:20:56;12.43;;;6.60;;
10114;SDS011;5097;43.260;27.812;2022-10-16T03:23:41;6.43;;;5.10;;
10114;SDS011;5097;43.260;27.812;2022-10-16T03:26:25;10.83;;;6.37;;
10114;SDS011;5097;43.260;27.812;2022-10-16T03:29:09;9.43;;;6.93;;
10114;SDS011;5097;43.260;27.812;2022-10-16T03:31:53;12.00;;;7.60;;
10114;SDS011;5097;43.260;27.812;2022-10-16T03:34:37;10.37;;;7.83;;
10114;SDS011;5097;43.260;27.812;2022-10-16T03:37:21;14.17;;;8.80;;
10114;SDS011;5097;43.260;27.812;2022-10-16T03:40:07;15.33;;;8.20;;
10114;SDS011;5097;43.260;27.812;2022-10-16T03:42:52;8.63;;;6.53;;
10114;SDS011;5097;43.260;27.812;2022-10-16T03:45:37;9.10;;;6.27;;
10114;SDS011;5097;43.260;27.812;2022-10-16T03:48:22;12.97;;;6.90;;
10114;SDS011;5097;43.260;27.812;2022-10-16T03:51:05;14.63;;;7.20;;
10114;SDS011;5097;43.260;27.812;2022-10-16T03:53:49;12.73;;;7.37;;
10114;SDS011;5097;43.260;27.812;2022-10-16T03:56:34;10.40;;;6.80;;
10114;SDS011;5097;43.260;27.812;2022-10-16T03:59:18;10.80;;;6.37;;
10114;SDS011;5097;43.260;27.812;2022-10-16T04:02:02;9.57;;;7.27;;
10114;SDS011;5097;43.260;27.812;2022-10-16T04:04:46;13.20;;;7.40;;
10114;SDS011;5097;43.260;27.812;2022-10-16T04:07:29;15.73;;;8.17;;
10114;SDS011;5097;43.260;27.812;2022-10-16T04:10:13;13.13;;;8.57;;
10114;SDS011;5097;43.260;27.812;2022-10-16T04:12:58;14.57;;;7.07;;
10114;SDS011;5097;43.260;27.812;2022-10-16T04:15:42;10.33;;;6.77;;
10114;SDS011;5097;43.260;27.812;2022-10-16T04:18:28;6.70;;;6.10;;
10114;SDS011;5097;43.260;27.812;2022-10-16T04:21:12;9.50;;;6.13;;
10114;SDS011;5097;43.260;27.812;2022-10-16T04:23:56;7.63;;;6.30;;
10114;SDS011;5097;43.260;27.812;2022-10-16T04:26:39;5.33;;;4.70;;
10114;SDS011;5097;43.260;27.812;2022-10-16T04:29:24;10.93;;;6.33;;
10114;SDS011;5097;43.260;27.812;2022-10-16T04:32:08;11.03;;;7.87;;
10114;SDS011;5097;43.260;27.812;2022-10-16T04:34:52;9.47;;;7.70;;
10114;SDS011;5097;43.260;27.812;2022-10-16T04:37:36;13.77;;;8.97;;
10114;SDS011;5097;43.260;27.812;2022-10-16T04:40:20;9.57;;;7.37;;
10114;SDS011;5097;43.260;27.812;2022-10-16T04:43:04;10.27;;;7.50;;
10114;SDS011;5097;43.260;27.812;2022-10-16T04:45:50;9.87;;;7.77;;
10114;SDS011;5097;43.260;27.812;2022-10-16T04:48:35;12.13;;;6.57;;
10114;SDS011;5097;43.260;27.812;2022-10-16T04:51:18;7.13;;;6.43;;
10114;SDS011;5097;43.260;27.812;2022-10-16T04:54:02;8.77;;;7.83;;
10114;SDS011;5097;43.260;27.812;2022-10-16T04:56:46;9.90;;;7.33;;
10114;SDS011;5097;43.260;27.812;2022-10-16T04:59:32;9.47;;;7.40;;
10114;SDS011;5097;43.260;27.812;2022-10-16T05:02:17;9.57;;;8.10;;
10114;SDS011;5097;43.260;27.812;2022-10-16T05:05:01;10.83;;;8.17;;
10114;SDS011;5097;43.260;27.812;2022-10-16T05:07:45;9.77;;;7.70;;
10114;SDS011;5097;43.260;27.812;2022-10-16T05:10:29;13.10;;;8.67;;
10114;SDS011;5097;43.260;27.812;2022-10-16T05:13:12;7.50;;;6.67;;
10114;SDS011;5097;43.260;27.812;2022-10-16T05:15:56;10.00;;;7.80;;
10114;SDS011;5097;43.260;27.812;2022-10-16T05:18:41;9.60;;;7.47;;
10114;SDS011;5097;43.260;27.812;2022-10-16T05:21:25;12.07;;;8.57;;
10114;SDS011;5097;43.260;27.812;2022-10-16T05:24:09;10.60;;;8.00;;
10114;SDS011;5097;43.260;27.812;2022-10-16T05:26:53;7.20;;;6.07;;
10114;SDS011;5097;43.260;27.812;2022-10-16T05:29:37;8.00;;;5.67;;
10114;SDS011;5097;43.260;27.812;2022-10-16T05:32:20;7.70;;;4.60;;
10114;SDS011;5097;43.260;27.812;2022-10-16T05:35:06;7.13;;;6.30;;
10114;SDS011;5097;43.260;27.812;2022-10-16T05:37:53;7.47;;;5.43;;
10114;SDS011;5097;43.260;27.812;2022-10-16T05:40:37;6.27;;;5.10;;
10114;SDS011;5097;43.260;27.812;2022-10-16T05:43:21;6.57;;;5.00;;
10114;SDS011;5097;43.260;27.812;2022-10-16T05:46:05;6.10;;;4.67;;
10114;SDS011;5097;43.260;27.812;2022-10-16T05:48:51;7.17;;;4.87;;
10114;SDS011;5097;43.260;27.812;2022-10-16T05:51:36;6.20;;;4.80;;
10114;SDS011;5097;43.260;27.812;2022-10-16T05:54:20;5.27;;;4.47;;
10114;SDS011;5097;43.260;27.812;2022-10-16T05:57:04;6.73;;;4.57;;
10114;SDS011;5097;43.260;27.812;2022-10-16T05:59:48;5.77;;;4.67;;
10114;SDS011;5097;43.260;27.812;2022-10-16T06:02:32;7.90;;;5.23;;
10114;SDS011;5097;43.260;27.812;2022-10-16T06:05:16;6.40;;;5.33;;
10114;SDS011;5097;43.260;27.812;2022-10-16T06:08:01;7.43;;;5.47;;
10114;SDS011;5097;43.260;27.812;2022-10-16T06:10:45;9.27;;;5.70;;
10114;SDS011;5097;43.260;27.812;2022-10-16T06:13:29;7.10;;;6.33;;
10114;SDS011;5097;43.260;27.812;2022-10-16T06:16:12;8.23;;;6.87;;
10114;SDS011;5097;43.260;27.812;2022-10-16T06:18:56;8.07;;;6.73;;
10114;SDS011;5097;43.260;27.812;2022-10-16T06:21:41;9.30;;;7.53;;
10114;SDS011;5097;43.260;27.812;2022-10-16T06:24:26;8.00;;;7.20;;
10114;SDS011;5097;43.260;27.812;2022-10-16T06:27:10;9.53;;;7.23;;
10114;SDS011;5097;43.260;27.812;2022-10-16T06:29:54;10.87;;;7.37;;
10114;SDS011;5097;43.260;27.812;2022-10-16T06:32:38;9.07;;;7.83;;
10114;SDS011;5097;43.260;27.812;2022-10-16T06:35:21;8.47;;;7.67;;
10114;SDS011;5097;43.260;27.812;2022-10-16T06:38:05;6.93;;;6.23;;
10114;SDS011;5097;43.260;27.812;2022-10-16T06:40:51;7.47;;;5.50;;
10114;SDS011;5097;43.260;27.812;2022-10-16T06:43:36;7.60;;;5.67;;
10114;SDS011;5097;43.260;27.812;2022-10-16T06:46:21;14.03;;;4.80;;
10114;SDS011;5097;43.260;27.812;2022-10-16T06:49:06;4.53;;;3.30;;
10114;SDS011;5097;43.260;27.812;2022-10-16T06:51:49;3.87;;;3.37;;
10114;SDS011;5097;43.260;27.812;2022-10-16T06:54:33;9.00;;;3.43;;
10114;SDS011;5097;43.260;27.812;2022-10-16T06:57:25;5.77;;;3.80;;
10114;SDS011;5097;43.260;27.812;2022-10-16T07:00:09;4.90;;;3.70;;
10114;SDS011;5097;43.260;27.812;2022-10-16T07:02:53;5.57;;;3.47;;
10114;SDS011;5097;43.260;27.812;2022-10-16T07:05:37;5.47;;;3.50;;
10114;SDS011;5097;43.260;27.812;2022-10-16T07:08:21;7.47;;;3.70;;
10114;SDS011;5097;43.260;27.812;2022-10-16T07:11:05;6.27;;;4.20;;
10114;SDS011;5097;43.260;27.812;2022-10-16T07:13:51;10.30;;;3.87;;
10114;SDS011;5097;43.260;27.812;2022-10-16T07:16:37;8.90;;;4.47;;
10114;SDS011;5097;43.260;27.812;2022-10-16T07:19:21;5.50;;;3.60;;
10114;SDS011;5097;43.260;27.812;2022-10-16T07:22:05;4.97;;;3.20;;
10114;SDS011;5097;43.260;27.812;2022-10-16T07:24:49;5.13;;;3.23;;
10114;SDS011;5097;43.260;27.812;2022-10-16T07:27:33;7.20;;;3.60;;
10114;SDS011;5097;43.260;27.812;2022-10-16T07:30:20;6.23;;;3.23;;
10114;SDS011;5097;43.260;27.812;2022-10-16T07:33:03;5.70;;;2.90;;
10114;SDS011;5097;43.260;27.812;2022-10-16T07:35:48;6.43;;;3.60;;
10114;SDS011;5097;43.260;27.812;2022-10-16T07:38:33;5.63;;;2.80;;
10114;SDS011;5097;43.260;27.812;2022-10-16T07:41:18;4.70;;;2.60;;
10114;SDS011;5097;43.260;27.812;2022-10-16T07:44:03;5.67;;;2.90;;
10114;SDS011;5097;43.260;27.812;2022-10-16T07:46:48;5.37;;;3.10;;
10114;SDS011;5097;43.260;27.812;2022-10-16T07:49:32;8.33;;;3.20;;
10114;SDS011;5097;43.260;27.812;2022-10-16T07:52:16;8.40;;;2.80;;
10114;SDS011;5097;43.260;27.812;2022-10-16T07:54:59;4.33;;;2.97;;
10114;SDS011;5097;43.260;27.812;2022-10-16T07:57:43;8.60;;;3.50;;
10114;SDS011;5097;43.260;27.812;2022-10-16T08:00:27;7.73;;;3.03;;
10114;SDS011;5097;43.260;27.812;2022-10-16T08:03:12;4.13;;;2.90;;
10114;SDS011;5097;43.260;27.812;2022-10-16T08:05:56;7.17;;;3.30;;
10114;SDS011;5097;43.260;27.812;2022-10-16T08:08:41;3.90;;;3.30;;
10114;SDS011;5097;43.260;27.812;2022-10-16T08:11:24;2.47;;;2.20;;
10114;SDS011;5097;43.260;27.812;2022-10-16T08:14:08;4.63;;;2.90;;
10114;SDS011;5097;43.260;27.812;2022-10-16T08:16:52;3.53;;;2.33;;
10114;SDS011;5097;43.260;27.812;2022-10-16T08:19:37;3.37;;;2.53;;
10114;SDS011;5097;43.260;27.812;2022-10-16T08:22:21;5.87;;;3.53;;
10114;SDS011;5097;43.260;27.812;2022-10-16T08:25:05;4.70;;;3.17;;
10114;SDS011;5097;43.260;27.812;2022-10-16T08:27:49;4.50;;;3.10;;
10114;SDS011;5097;43.260;27.812;2022-10-16T08:30:34;3.07;;;2.00;;
10114;SDS011;5097;43.260;27.812;2022-10-16T08:33:18;6.30;;;3.07;;
10114;SDS011;5097;43.260;27.812;2022-10-16T08:36:04;6.70;;;2.70;;
10114;SDS011;5097;43.260;27.812;2022-10-16T08:38:49;8.23;;;3.20;;
10114;SDS011;5097;43.260;27.812;2022-10-16T08:44:54;3.07;;;2.77;;
10114;SDS011;5097;43.260;27.812;2022-10-16T08:47:59;5.23;;;2.20;;
10114;SDS011;5097;43.260;27.812;2022-10-16T08:50:52;3.70;;;2.43;;
10114;SDS011;5097;43.260;27.812;2022-10-16T08:53:46;5.47;;;2.93;;
10114;SDS011;5097;43.260;27.812;2022-10-16T08:56:34;6.33;;;2.63;;
10114;SDS011;5097;43.260;27.812;2022-10-16T08:59:17;4.73;;;2.83;;
10114;SDS011;5097;43.260;27.812;2022-10-16T09:02:02;6.77;;;3.60;;
10114;SDS011;5097;43.260;27.812;2022-10-16T09:05:18;3.97;;;2.67;;
10114;SDS011;5097;43.260;27.812;2022-10-16T09:08:12;3.30;;;2.23;;
10114;SDS011;5097;43.260;27.812;2022-10-16T09:11:09;3.20;;;2.70;;
10114;SDS011;5097;43.260;27.812;2022-10-16T09:14:03;5.73;;;3.17;;
10114;SDS011;5097;43.260;27.812;2022-10-16T09:16:57;3.13;;;2.47;;
10114;SDS011;5097;43.260;27.812;2022-10-16T09:19:48;4.57;;;2.93;;
10114;SDS011;5097;43.260;27.812;2022-10-16T09:22:38;7.30;;;3.10;;
10114;SDS011;5097;43.260;27.812;2022-10-16T09:25:23;6.10;;;3.00;;
10114;SDS011;5097;43.260;27.812;2022-10-16T09:28:08;5.03;;;2.80;;
10114;SDS011;5097;43.260;27.812;2022-10-16T09:30:52;2.90;;;2.03;;
10114;SDS011;5097;43.260;27.812;2022-10-16T09:33:37;3.77;;;2.47;;
10114;SDS011;5097;43.260;27.812;2022-10-16T09:36:23;2.20;;;2.00;;
10114;SDS011;5097;43.260;27.812;2022-10-16T09:39:10;2.73;;;1.77;;
10114;SDS011;5097;43.260;27.812;2022-10-16T09:41:54;2.53;;;2.13;;
10114;SDS011;5097;43.260;27.812;2022-10-16T09:44:41;7.70;;;3.20;;
10114;SDS011;5097;43.260;27.812;2022-10-16T09:47:25;2.83;;;2.53;;
10114;SDS011;5097;43.260;27.812;2022-10-16T09:50:19;5.30;;;2.73;;
10114;SDS011;5097;43.260;27.812;2022-10-16T09:53:08;3.63;;;2.07;;
10114;SDS011;5097;43.260;27.812;2022-10-16T09:55:55;3.63;;;2.23;;
10114;SDS011;5097;43.260;27.812;2022-10-16T09:58:41;3.73;;;2.60;;
10114;SDS011;5097;43.260;27.812;2022-10-16T10:01:30;3.90;;;2.33;;
10114;SDS011;5097;43.260;27.812;2022-10-16T10:04:20;3.97;;;2.63;;
10114;SDS011;5097;43.260;27.812;2022-10-16T10:07:07;7.63;;;3.77;;
10114;SDS011;5097;43.260;27.812;2022-10-16T10:10:03;5.53;;;2.70;;
10114;SDS011;5097;43.260;27.812;2022-10-16T10:12:48;4.63;;;2.50;;
10114;SDS011;5097;43.260;27.812;2022-10-16T10:15:33;5.33;;;2.17;;
10114;SDS011;5097;43.260;27.812;2022-10-16T10:18:25;4.53;;;2.17;;
10114;SDS011;5097;43.260;27.812;2022-10-16T10:21:12;5.53;;;2.63;;
10114;SDS011;5097;43.260;27.812;2022-10-16T10:24:00;5.73;;;3.67;;
10114;SDS011;5097;43.260;27.812;2022-10-16T10:26:47;6.43;;;3.03;;
10114;SDS011;5097;43.260;27.812;2022-10-16T10:29:41;3.90;;;2.47;;
10114;SDS011;5097;43.260;27.812;2022-10-16T10:32:37;3.43;;;2.70;;
10114;SDS011;5097;43.260;27.812;2022-10-16T10:35:29;4.50;;;2.50;;
10114;SDS011;5097;43.260;27.812;2022-10-16T10:38:27;5.67;;;2.30;;
10114;SDS011;5097;43.260;27.812;2022-10-16T10:41:34;5.07;;;2.30;;
10114;SDS011;5097;43.260;27.812;2022-10-16T10:44:48;5.00;;;2.50;;
10114;SDS011;5097;43.260;27.812;2022-10-16T10:47:42;4.37;;;2.63;;
10114;SDS011;5097;43.260;27.812;2022-10-16T10:50:38;5.37;;;3.03;;
10114;SDS011;5097;43.260;27.812;2022-10-16T10:53:29;9.47;;;3.13;;
10114;SDS011;5097;43.260;27.812;2022-10-16T10:56:25;3.20;;;2.33;;
10114;SDS011;5097;43.260;27.812;2022-10-16T10:59:30;6.00;;;3.00;;
10114;SDS011;5097;43.260;27.812;2022-10-16T11:02:29;5.27;;;2.40;;
10114;SDS011;5097;43.260;27.812;2022-10-16T11:05:24;2.57;;;2.27;;
10114;SDS011;5097;43.260;27.812;2022-10-16T11:08:17;6.83;;;2.50;;
10114;SDS011;5097;43.260;27.812;2022-10-16T11:11:04;2.67;;;2.30;;
10114;SDS011;5097;43.260;27.812;2022-10-16T11:13:53;5.23;;;2.20;;
10114;SDS011;5097;43.260;27.812;2022-10-16T11:16:42;3.17;;;2.50;;
10114;SDS011;5097;43.260;27.812;2022-10-16T11:19:33;4.83;;;2.10;;
10114;SDS011;5097;43.260;27.812;2022-10-16T11:22:26;5.67;;;3.13;;
10114;SDS011;5097;43.260;27.812;2022-10-16T11:25:18;6.07;;;2.93;;
10114;SDS011;5097;43.260;27.812;2022-10-16T11:28:07;3.20;;;2.43;;
10114;SDS011;5097;43.260;27.812;2022-10-16T11:30:56;4.03;;;3.07;;
10114;SDS011;5097;43.260;27.812;2022-10-16T11:33:43;3.23;;;2.43;;
10114;SDS011;5097;43.260;27.812;2022-10-16T11:36:31;4.20;;;2.50;;
10114;SDS011;5097;43.260;27.812;2022-10-16T11:39:20;5.83;;;2.30;;
10114;SDS011;5097;43.260;27.812;2022-10-16T11:42:07;2.50;;;2.30;;
10114;SDS011;5097;43.260;27.812;2022-10-16T11:44:55;4.73;;;2.80;;
10114;SDS011;5097;43.260;27.812;2022-10-16T11:47:45;5.53;;;2.63;;
10114;SDS011;5097;43.260;27.812;2022-10-16T11:50:42;4.23;;;2.53;;
10114;SDS011;5097;43.260;27.812;2022-10-16T11:53:37;3.30;;;2.60;;
10114;SDS011;5097;43.260;27.812;2022-10-16T11:56:28;3.47;;;1.90;;
10114;SDS011;5097;43.260;27.812;2022-10-16T11:59:17;5.63;;;2.87;;
10114;SDS011;5097;43.260;27.812;2022-10-16T12:02:13;6.97;;;2.90;;
10114;SDS011;5097;43.260;27.812;2022-10-16T12:05:13;6.87;;;2.80;;
10114;SDS011;5097;43.260;27.812;2022-10-16T12:08:05;5.40;;;3.30;;
10114;SDS011;5097;43.260;27.812;2022-10-16T12:10:53;4.37;;;2.50;;
10114;SDS011;5097;43.260;27.812;2022-10-16T12:13:37;4.13;;;2.20;;
10114;SDS011;5097;43.260;27.812;2022-10-16T12:16:24;5.17;;;2.90;;
10114;SDS011;5097;43.260;27.812;2022-10-16T12:19:11;3.73;;;2.47;;
10114;SDS011;5097;43.260;27.812;2022-10-16T12:21:57;3.37;;;2.30;;
10114;SDS011;5097;43.260;27.812;2022-10-16T12:24:43;4.97;;;2.83;;
10114;SDS011;5097;43.260;27.812;2022-10-16T12:27:27;4.33;;;3.10;;
10114;SDS011;5097;43.260;27.812;2022-10-16T12:30:15;2.60;;;2.40;;
10114;SDS011;5097;43.260;27.812;2022-10-16T12:33:15;5.70;;;3.33;;
10114;SDS011;5097;43.260;27.812;2022-10-16T12:36:05;5.87;;;3.10;;
10114;SDS011;5097;43.260;27.812;2022-10-16T12:38:56;5.20;;;2.87;;
10114;SDS011;5097;43.260;27.812;2022-10-16T12:41:40;3.40;;;2.43;;
10114;SDS011;5097;43.260;27.812;2022-10-16T12:44:24;4.27;;;2.43;;
10114;SDS011;5097;43.260;27.812;2022-10-16T12:47:18;4.80;;;3.07;;
10114;SDS011;5097;43.260;27.812;2022-10-16T12:53:19;3.83;;;3.00;;
10114;SDS011;5097;43.260;27.812;2022-10-16T12:56:08;5.40;;;3.17;;
10114;SDS011;5097;43.260;27.812;2022-10-16T12:59:02;3.40;;;2.73;;
10114;SDS011;5097;43.260;27.812;2022-10-16T13:02:00;4.07;;;2.40;;
10114;SDS011;5097;43.260;27.812;2022-10-16T13:05:03;3.37;;;2.77;;
10114;SDS011;5097;43.260;27.812;2022-10-16T13:08:03;2.27;;;2.10;;
10114;SDS011;5097;43.260;27.812;2022-10-16T13:11:01;7.63;;;2.90;;
10114;SDS011;5097;43.260;27.812;2022-10-16T13:13:56;5.67;;;3.50;;
10114;SDS011;5097;43.260;27.812;2022-10-16T13:17:01;5.25;;;3.53;;
10114;SDS011;5097;43.260;27.812;2022-10-16T13:19:53;5.05;;;3.10;;
10114;SDS011;5097;43.260;27.812;2022-10-16T13:22:47;3.70;;;2.87;;
10114;SDS011;5097;43.260;27.812;2022-10-16T13:25:43;5.37;;;3.30;;
10114;SDS011;5097;43.260;27.812;2022-10-16T13:28:37;7.50;;;4.00;;
10114;SDS011;5097;43.260;27.812;2022-10-16T13:31:22;6.50;;;3.73;;
10114;SDS011;5097;43.260;27.812;2022-10-16T13:34:10;4.37;;;3.07;;
10114;SDS011;5097;43.260;27.812;2022-10-16T13:36:57;4.07;;;2.93;;
10114;SDS011;5097;43.260;27.812;2022-10-16T13:39:41;4.80;;;3.10;;
10114;SDS011;5097;43.260;27.812;2022-10-16T13:42:27;3.37;;;3.00;;
10114;SDS011;5097;43.260;27.812;2022-10-16T13:45:17;8.83;;;3.83;;
10114;SDS011;5097;43.260;27.812;2022-10-16T13:48:02;3.83;;;2.90;;
10114;SDS011;5097;43.260;27.812;2022-10-16T13:50:46;3.67;;;2.43;;
10114;SDS011;5097;43.260;27.812;2022-10-16T13:53:42;3.83;;;2.17;;
10114;SDS011;5097;43.260;27.812;2022-10-16T13:56:27;4.50;;;2.83;;
10114;SDS011;5097;43.260;27.812;2022-10-16T13:59:23;4.23;;;2.60;;
10114;SDS011;5097;43.260;27.812;2022-10-16T14:02:15;6.63;;;2.70;;
10114;SDS011;5097;43.260;27.812;2022-10-16T14:05:04;3.67;;;2.30;;
10114;SDS011;5097;43.260;27.812;2022-10-16T14:07:52;3.73;;;2.67;;
10114;SDS011;5097;43.260;27.812;2022-10-16T14:10:38;5.23;;;3.50;;
10114;SDS011;5097;43.260;27.812;2022-10-16T14:13:25;6.87;;;3.33;;
10114;SDS011;5097;43.260;27.812;2022-10-16T14:16:17;6.33;;;3.43;;
10114;SDS011;5097;43.260;27.812;2022-10-16T14:19:03;7.27;;;2.70;;
10114;SDS011;5097;43.260;27.812;2022-10-16T14:21:49;4.33;;;3.03;;
10114;SDS011;5097;43.260;27.812;2022-10-16T14:24:34;7.23;;;3.13;;
10114;SDS011;5097;43.260;27.812;2022-10-16T14:27:23;2.83;;;2.23;;
10114;SDS011;5097;43.260;27.812;2022-10-16T14:30:12;5.33;;;2.63;;
10114;SDS011;5097;43.260;27.812;2022-10-16T14:33:01;5.93;;;3.40;;
10114;SDS011;5097;43.260;27.812;2022-10-16T14:35:56;5.40;;;3.20;;
10114;SDS011;5097;43.260;27.812;2022-10-16T14:38:48;6.00;;;3.17;;
10114;SDS011;5097;43.260;27.812;2022-10-16T14:41:40;5.43;;;2.87;;
10114;SDS011;5097;43.260;27.812;2022-10-16T14:44:28;5.20;;;3.10;;
10114;SDS011;5097;43.260;27.812;2022-10-16T14:47:15;7.13;;;3.30;;
10114;SDS011;5097;43.260;27.812;2022-10-16T14:50:07;5.87;;;3.53;;
10114;SDS011;5097;43.260;27.812;2022-10-16T14:52:51;5.73;;;3.43;;
10114;SDS011;5097;43.260;27.812;2022-10-16T14:55:36;6.13;;;2.93;;
10114;SDS011;5097;43.260;27.812;2022-10-16T14:58:21;4.93;;;2.70;;
10114;SDS011;5097;43.260;27.812;2022-10-16T15:01:07;6.30;;;3.47;;
10114;SDS011;5097;43.260;27.812;2022-10-16T15:03:53;5.90;;;2.83;;
10114;SDS011;5097;43.260;27.812;2022-10-16T15:06:38;12.10;;;5.20;;
10114;SDS011;5097;43.260;27.812;2022-10-16T15:09:23;9.87;;;5.30;;
10114;SDS011;5097;43.260;27.812;2022-10-16T15:12:07;7.47;;;4.27;;
10114;SDS011;5097;43.260;27.812;2022-10-16T15:14:51;7.27;;;4.17;;
10114;SDS011;5097;43.260;27.812;2022-10-16T15:17:35;8.27;;;3.20;;
10114;SDS011;5097;43.260;27.812;2022-10-16T15:20:18;4.50;;;3.03;;
10114;SDS011;5097;43.260;27.812;2022-10-16T15:23:04;5.13;;;3.70;;
10114;SDS011;5097;43.260;27.812;2022-10-16T15:25:50;9.07;;;4.50;;
10114;SDS011;5097;43.260;27.812;2022-10-16T15:28:36;11.07;;;4.80;;
10114;SDS011;5097;43.260;27.812;2022-10-16T15:31:21;6.67;;;4.47;;
10114;SDS011;5097;43.260;27.812;2022-10-16T15:34:05;16.60;;;11.80;;
10114;SDS011;5097;43.260;27.812;2022-10-16T15:36:50;32.57;;;17.27;;
10114;SDS011;5097;43.260;27.812;2022-10-16T15:39:36;13.50;;;8.33;;
10114;SDS011;5097;43.260;27.812;2022-10-16T15:42:22;8.73;;;6.53;;
10114;SDS011;5097;43.260;27.812;2022-10-16T15:45:06;15.73;;;10.37;;
10114;SDS011;5097;43.260;27.812;2022-10-16T15:47:52;12.83;;;9.03;;
10114;SDS011;5097;43.260;27.812;2022-10-16T15:50:36;10.40;;;5.53;;
10114;SDS011;5097;43.260;27.812;2022-10-16T15:53:21;6.23;;;4.67;;
10114;SDS011;5097;43.260;27.812;2022-10-16T15:56:07;6.60;;;5.47;;
10114;SDS011;5097;43.260;27.812;2022-10-16T15:58:53;7.83;;;4.53;;
10114;SDS011;5097;43.260;27.812;2022-10-16T16:01:39;7.50;;;4.00;;
10114;SDS011;5097;43.260;27.812;2022-10-16T16:04:23;7.57;;;3.60;;
10114;SDS011;5097;43.260;27.812;2022-10-16T16:07:24;8.57;;;4.27;;
10114;SDS011;5097;43.260;27.812;2022-10-16T16:10:10;8.77;;;4.77;;
10114;SDS011;5097;43.260;27.812;2022-10-16T16:12:55;9.70;;;5.43;;
10114;SDS011;5097;43.260;27.812;2022-10-16T16:15:39;18.13;;;8.30;;
10114;SDS011;5097;43.260;27.812;2022-10-16T16:18:23;14.10;;;7.03;;
10114;SDS011;5097;43.260;27.812;2022-10-16T16:21:09;10.33;;;6.93;;
10114;SDS011;5097;43.260;27.812;2022-10-16T16:23:54;13.13;;;6.60;;
10114;SDS011;5097;43.260;27.812;2022-10-16T16:26:38;20.20;;;6.90;;
10114;SDS011;5097;43.260;27.812;2022-10-16T16:29:27;14.83;;;8.83;;
10114;SDS011;5097;43.260;27.812;2022-10-16T16:32:11;18.17;;;5.00;;
10114;SDS011;5097;43.260;27.812;2022-10-16T16:34:55;26.70;;;4.97;;
10114;SDS011;5097;43.260;27.812;2022-10-16T16:37:39;22.23;;;5.13;;
10114;SDS011;5097;43.260;27.812;2022-10-16T16:40:23;12.90;;;5.20;;
10114;SDS011;5097;43.260;27.812;2022-10-16T16:43:07;14.50;;;5.37;;
10114;SDS011;5097;43.260;27.812;2022-10-16T16:45:52;19.93;;;6.60;;
10114;SDS011;5097;43.260;27.812;2022-10-16T16:48:36;20.73;;;8.10;;